createdAt,value
2023-02-15T00:00:14.093Z,1.20
2023-02-15T00:02:20.836Z,1.20
2023-02-15T00:04:47.595Z,1.30
2023-02-15T00:06:53.045Z,1.30
2023-02-15T00:08:57.864Z,1.40
2023-02-15T00:11:09.910Z,1.40
2023-02-15T00:13:14.611Z,1.30
2023-02-15T00:15:19.720Z,1.30
2023-02-15T00:17:25.055Z,1.40
2023-02-15T00:19:32.521Z,1.30
2023-02-15T00:21:38.948Z,1.30
2023-02-15T00:23:43.582Z,1.30
2023-02-15T00:25:48.930Z,1.40
2023-02-15T00:27:54.142Z,1.30
2023-02-15T00:29:59.101Z,1.30
2023-02-15T00:32:03.850Z,1.20
2023-02-15T00:34:09.572Z,1.30
2023-02-15T00:36:18.042Z,1.10
2023-02-15T00:38:22.699Z,1.10
2023-02-15T00:40:28.284Z,1.30
2023-02-15T00:42:33.228Z,1.20
2023-02-15T00:44:38.815Z,1.30
2023-02-15T00:46:43.815Z,1.30
2023-02-15T00:48:49.211Z,1.40
2023-02-15T00:50:55.716Z,1.30
2023-02-15T00:53:03.729Z,1.10
2023-02-15T00:55:10.007Z,1.20
2023-02-15T00:57:15.090Z,1.30
2023-02-15T00:59:20.593Z,1.20
2023-02-15T01:01:27.098Z,1.20
2023-02-15T01:03:32.059Z,1.30
2023-02-15T01:05:37.481Z,1.30
2023-02-15T01:07:42.406Z,1.30
2023-02-15T01:09:49.834Z,1.30
2023-02-15T01:11:55.184Z,1.10
2023-02-15T01:14:01.408Z,1.10
2023-02-15T01:16:08.045Z,1.10
2023-02-15T01:18:13.678Z,1.30
2023-02-15T01:20:20.558Z,1.10
2023-02-15T01:22:25.735Z,1.20
2023-02-15T01:24:32.980Z,1.10
2023-02-15T01:26:40.423Z,1.00
2023-02-15T01:28:45.202Z,1.00
2023-02-15T01:30:50.666Z,1.10
2023-02-15T01:32:56.874Z,1.10
2023-02-15T01:35:01.809Z,1.20
2023-02-15T01:37:06.919Z,1.10
2023-02-15T01:39:13.642Z,1.20
2023-02-15T01:41:27.891Z,1.20
2023-02-15T01:43:46.411Z,1.20
2023-02-15T01:45:52.896Z,1.20
2023-02-15T01:48:03.054Z,1.20
2023-02-15T01:50:14.013Z,1.20
2023-02-15T01:52:21.723Z,1.20
2023-02-15T01:54:33.729Z,1.10
2023-02-15T01:56:41.528Z,1.10
2023-02-15T01:58:50.406Z,1.10
2023-02-15T02:00:56.707Z,1.00
2023-02-15T02:03:01.557Z,1.00
2023-02-15T02:05:09.915Z,1.10
2023-02-15T02:07:16.563Z,1.00
2023-02-15T02:09:21.507Z,1.00
2023-02-15T02:11:26.874Z,1.10
2023-02-15T02:13:32.050Z,1.10
2023-02-15T02:15:47.838Z,1.10
2023-02-15T02:18:11.824Z,1.10
2023-02-15T02:20:54.733Z,1.00
2023-02-15T02:23:22.908Z,1.00
2023-02-15T02:25:57.070Z,1.00
2023-02-15T02:28:08.912Z,1.00
2023-02-15T02:30:52.787Z,0.90
2023-02-15T02:33:12.852Z,0.90
2023-02-15T02:35:22.826Z,1.00
2023-02-15T02:37:31.856Z,1.00
2023-02-15T02:39:45.463Z,0.90
2023-02-15T02:42:00.181Z,1.00
2023-02-15T02:44:12.582Z,1.00
2023-02-15T02:46:22.609Z,1.00
2023-02-15T02:48:32.058Z,0.90
2023-02-15T02:50:37.140Z,0.90
2023-02-15T02:52:44.714Z,1.00
2023-02-15T02:54:50.019Z,1.00
2023-02-15T02:56:56.342Z,0.90
2023-02-15T02:59:05.797Z,0.90
2023-02-15T03:01:16.054Z,1.00
2023-02-15T03:03:24.476Z,0.90
2023-02-15T03:05:32.850Z,1.00
2023-02-15T03:07:39.250Z,1.00
2023-02-15T03:09:46.312Z,0.90
2023-02-15T03:11:53.192Z,0.80
2023-02-15T03:14:00.424Z,0.90
2023-02-15T03:16:19.445Z,0.90
2023-02-15T03:18:30.136Z,0.90
2023-02-15T03:20:40.353Z,0.90
2023-02-15T03:22:51.817Z,0.90
2023-02-15T03:25:00.970Z,0.90
2023-02-15T03:27:07.531Z,0.90
2023-02-15T03:29:14.074Z,0.90
2023-02-15T03:31:20.536Z,0.90
2023-02-15T03:33:27.623Z,1.00
2023-02-15T03:35:40.800Z,0.90
2023-02-15T03:37:51.282Z,0.70
2023-02-15T03:40:20.360Z,0.80
2023-02-15T03:42:30.483Z,0.80
2023-02-15T03:44:39.718Z,0.70
2023-02-15T03:46:52.219Z,0.80
2023-02-15T03:49:00.418Z,0.90
2023-02-15T03:51:23.889Z,0.80
2023-02-15T03:53:30.500Z,0.80
2023-02-15T03:55:35.254Z,0.90
2023-02-15T03:57:53.085Z,0.90
2023-02-15T04:00:10.700Z,0.80
2023-02-15T04:02:23.287Z,0.90
2023-02-15T04:04:32.337Z,0.80
2023-02-15T04:06:39.577Z,0.60
2023-02-15T04:08:57.262Z,0.60
2023-02-15T04:11:02.160Z,0.70
2023-02-15T04:13:07.334Z,0.70
2023-02-15T04:15:27.978Z,0.70
2023-02-15T04:17:33.147Z,0.70
2023-02-15T04:19:50.358Z,0.80
2023-02-15T04:22:10.111Z,0.80
2023-02-15T04:24:28.921Z,0.80
2023-02-15T04:26:33.578Z,0.80
2023-02-15T04:28:38.604Z,0.70
2023-02-15T04:30:43.279Z,0.40
2023-02-15T04:32:48.936Z,0.50
2023-02-15T04:34:53.581Z,0.60
2023-02-15T04:37:01.246Z,0.60
2023-02-15T04:39:06.036Z,0.30
2023-02-15T04:41:12.405Z,0.20
2023-02-15T04:43:17.062Z,0.30
2023-02-15T04:45:22.515Z,0.40
2023-02-15T04:47:27.350Z,0.50
2023-02-15T04:49:32.478Z,0.50
2023-02-15T04:51:37.150Z,0.50
2023-02-15T04:53:44.501Z,0.50
2023-02-15T04:55:49.142Z,0.30
2023-02-15T04:57:53.855Z,-0.10
2023-02-15T05:00:00.396Z,-0.10
2023-02-15T05:02:05.499Z,0.10
2023-02-15T05:04:10.494Z,0.20
2023-02-15T05:06:15.186Z,0.40
2023-02-15T05:08:20.004Z,0.40
2023-02-15T05:10:27.720Z,0.50
2023-02-15T05:12:32.383Z,0.40
2023-02-15T05:14:37.915Z,0.30
2023-02-15T05:16:42.902Z,0.30
2023-02-15T05:18:47.672Z,0.20
2023-02-15T05:20:52.846Z,0.30
2023-02-15T05:22:57.642Z,0.30
2023-02-15T05:25:15.535Z,0.20
2023-02-15T05:27:35.349Z,0.40
2023-02-15T05:29:40.058Z,0.40
2023-02-15T05:31:48.373Z,0.30
2023-02-15T05:33:54.062Z,0.50
2023-02-15T05:35:58.778Z,0.40
2023-02-15T05:38:03.675Z,0.40
2023-02-15T05:40:10.263Z,0.30
2023-02-15T05:42:15.447Z,0.30
2023-02-15T05:44:22.781Z,0.30
2023-02-15T05:46:27.859Z,0.20
2023-02-15T05:48:32.854Z,0.30
2023-02-15T05:50:37.903Z,0.30
2023-02-15T05:52:42.577Z,0.30
2023-02-15T05:54:47.566Z,0.30
2023-02-15T05:56:52.267Z,0.30
2023-02-15T05:58:57.863Z,0.40
2023-02-15T06:01:11.729Z,0.50
2023-02-15T06:03:16.420Z,0.50
2023-02-15T06:05:21.354Z,0.40
2023-02-15T06:07:26.653Z,0.40
2023-02-15T06:09:31.407Z,0.30
2023-02-15T06:11:36.105Z,0.20
2023-02-15T06:13:41.205Z,0.30
2023-02-15T06:15:46.389Z,0.20
2023-02-15T06:17:54.043Z,0.20
2023-02-15T06:19:59.134Z,0.10
2023-02-15T06:22:03.960Z,0.20
2023-02-15T06:24:09.000Z,0.20
2023-02-15T06:26:14.453Z,0.20
2023-02-15T06:28:19.470Z,0.20
2023-02-15T06:30:24.316Z,0.20
2023-02-15T06:32:29.578Z,0.20
2023-02-15T06:34:36.883Z,0.10
2023-02-15T06:36:42.145Z,0.20
2023-02-15T06:38:46.964Z,0.10
2023-02-15T06:40:51.662Z,0.10
2023-02-15T06:42:57.244Z,0.10
2023-02-15T06:45:01.938Z,0.10
2023-02-15T06:47:06.730Z,0.20
2023-02-15T06:49:11.413Z,0.20
2023-02-15T06:51:19.062Z,0.20
2023-02-15T06:53:23.735Z,0.10
2023-02-15T06:55:28.760Z,0.10
2023-02-15T06:57:34.181Z,0.10
2023-02-15T06:59:38.912Z,0.10
2023-02-15T07:01:43.643Z,0.10
2023-02-15T07:03:48.660Z,0.10
2023-02-15T07:05:57.761Z,0.10
2023-02-15T07:08:05.200Z,0.10
2023-02-15T07:10:10.657Z,0.00
2023-02-15T07:12:28.254Z,0.00
2023-02-15T07:14:33.021Z,0.00
2023-02-15T07:16:37.710Z,0.00
2023-02-15T07:18:42.584Z,0.00
2023-02-15T07:20:47.247Z,0.00
2023-02-15T07:22:52.228Z,0.00
2023-02-15T07:24:59.700Z,0.00
2023-02-15T07:27:04.372Z,0.10
2023-02-15T07:29:09.019Z,0.10
2023-02-15T07:31:13.756Z,0.00
2023-02-15T07:33:28.153Z,0.00
2023-02-15T07:35:33.131Z,0.00
2023-02-15T07:37:38.074Z,0.00
2023-02-15T07:39:42.710Z,0.00
2023-02-15T07:41:50.032Z,0.10
2023-02-15T07:43:56.156Z,0.20
2023-02-15T07:46:03.921Z,0.20
2023-02-15T07:48:09.659Z,0.40
2023-02-15T07:50:14.341Z,0.40
2023-02-15T07:52:18.993Z,0.40
2023-02-15T07:54:23.972Z,0.50
2023-02-15T07:56:29.143Z,0.50
2023-02-15T07:58:49.116Z,0.50
2023-02-15T08:01:02.801Z,0.40
2023-02-15T08:03:19.616Z,0.40
2023-02-15T08:05:24.375Z,0.40
2023-02-15T08:07:29.445Z,0.40
2023-02-15T08:09:34.467Z,0.40
2023-02-15T08:11:40.961Z,0.30
2023-02-15T08:13:57.296Z,0.40
2023-02-15T08:16:02.174Z,0.50
2023-02-15T08:18:07.342Z,0.60
2023-02-15T08:20:13.612Z,0.60
2023-02-15T08:22:18.345Z,0.70
2023-02-15T08:24:26.040Z,0.70
2023-02-15T08:26:31.900Z,0.70
2023-02-15T08:28:38.125Z,0.70
2023-02-15T08:30:46.951Z,0.80
2023-02-15T08:32:51.707Z,0.80
2023-02-15T08:34:57.199Z,0.90
2023-02-15T08:37:02.019Z,0.90
2023-02-15T08:39:09.275Z,1.00
2023-02-15T08:41:20.352Z,1.00
2023-02-15T08:43:25.032Z,1.10
2023-02-15T08:45:30.705Z,1.10
2023-02-15T08:47:37.996Z,1.00
2023-02-15T08:49:43.466Z,0.90
2023-02-15T08:51:48.321Z,0.80
2023-02-15T08:53:55.915Z,0.80
2023-02-15T08:56:01.727Z,0.60
2023-02-15T08:58:06.508Z,0.70
2023-02-15T09:00:13.241Z,0.80
2023-02-15T09:02:17.917Z,0.80
2023-02-15T09:04:25.284Z,0.80
2023-02-15T09:06:30.936Z,0.80
2023-02-15T09:08:36.069Z,0.90
2023-02-15T09:10:40.765Z,0.80
2023-02-15T09:12:45.796Z,0.90
2023-02-15T09:14:51.387Z,0.80
2023-02-15T09:16:57.117Z,1.00
2023-02-15T09:19:02.350Z,1.10
2023-02-15T09:21:14.936Z,1.20
2023-02-15T09:23:26.809Z,1.10
2023-02-15T09:25:32.589Z,1.00
2023-02-15T09:27:39.606Z,1.00
2023-02-15T09:29:44.311Z,1.10
2023-02-15T09:31:50.828Z,1.30
2023-02-15T09:33:55.703Z,1.50
2023-02-15T09:36:01.249Z,1.50
2023-02-15T09:38:08.687Z,1.50
2023-02-15T09:40:16.548Z,1.50
2023-02-15T09:42:48.914Z,1.30
2023-02-15T09:45:20.309Z,1.50
2023-02-15T09:47:38.458Z,1.60
2023-02-15T09:49:49.735Z,1.50
2023-02-15T09:52:23.582Z,1.50
2023-02-15T09:54:47.745Z,1.50
2023-02-15T09:56:55.556Z,1.60
2023-02-15T09:59:06.877Z,1.60
2023-02-15T10:01:20.477Z,1.80
2023-02-15T10:03:43.305Z,1.80
2023-02-15T10:05:58.063Z,1.80
2023-02-15T10:08:13.658Z,1.90
2023-02-15T10:10:28.388Z,1.90
2023-02-15T10:12:47.318Z,1.90
2023-02-15T10:15:16.324Z,1.80
2023-02-15T10:17:32.426Z,2.00
2023-02-15T10:19:41.706Z,2.00
2023-02-15T10:21:56.968Z,2.10
2023-02-15T10:24:18.701Z,2.10
2023-02-15T10:26:29.966Z,2.20
2023-02-15T10:28:38.705Z,2.20
2023-02-15T10:30:49.786Z,2.20
2023-02-15T10:33:02.561Z,2.10
2023-02-15T10:35:13.798Z,2.20
2023-02-15T10:37:44.939Z,2.20
2023-02-15T10:39:57.627Z,2.30
2023-02-15T10:42:11.870Z,2.30
2023-02-15T10:44:34.422Z,2.30
2023-02-15T10:46:52.964Z,2.30
2023-02-15T10:49:15.581Z,2.30
2023-02-15T10:51:29.739Z,2.50
2023-02-15T10:53:57.509Z,2.50
2023-02-15T10:56:14.860Z,2.40
2023-02-15T10:58:31.243Z,2.70
2023-02-15T11:00:40.204Z,2.70
2023-02-15T11:02:55.763Z,2.60
2023-02-15T11:05:12.734Z,2.80
2023-02-15T11:07:22.382Z,3.00
2023-02-15T11:09:31.288Z,2.80
2023-02-15T11:11:40.285Z,2.80
2023-02-15T11:13:51.992Z,2.90
2023-02-15T11:15:59.931Z,3.00
2023-02-15T11:18:12.249Z,3.00
2023-02-15T11:20:22.631Z,3.00
2023-02-15T11:22:27.742Z,2.90
2023-02-15T11:24:35.717Z,3.00
2023-02-15T11:26:45.349Z,3.10
2023-02-15T11:28:58.017Z,3.00
2023-02-15T11:31:13.370Z,3.00
2023-02-15T11:33:23.295Z,3.20
2023-02-15T11:35:32.195Z,3.40
2023-02-15T11:37:44.067Z,3.10
2023-02-15T11:39:52.579Z,3.20
2023-02-15T11:42:01.261Z,3.20
2023-02-15T11:44:17.090Z,3.30
2023-02-15T11:46:22.720Z,3.30
2023-02-15T11:48:27.465Z,3.40
2023-02-15T11:50:34.999Z,3.40
2023-02-15T11:52:39.763Z,3.50
2023-02-15T11:54:46.416Z,3.50
2023-02-15T11:56:51.925Z,3.40
2023-02-15T11:58:59.219Z,3.60
2023-02-15T12:01:15.118Z,3.60
2023-02-15T12:03:25.226Z,3.40
2023-02-15T12:05:29.916Z,3.60
2023-02-15T12:07:39.436Z,3.70
2023-02-15T12:09:50.096Z,3.90
2023-02-15T12:11:55.212Z,3.80
2023-02-15T12:14:01.800Z,3.70
2023-02-15T12:16:16.153Z,3.70
2023-02-15T12:18:37.026Z,3.70
2023-02-15T12:20:42.013Z,3.80
2023-02-15T12:22:52.776Z,4.00
2023-02-15T12:25:00.950Z,4.10
2023-02-15T12:27:07.729Z,4.00
2023-02-15T12:29:18.956Z,3.80
2023-02-15T12:31:31.461Z,3.90
2023-02-15T12:33:38.883Z,4.00
2023-02-15T12:35:44.957Z,4.20
2023-02-15T12:37:57.822Z,4.20
2023-02-15T12:40:03.805Z,4.10
2023-02-15T12:42:18.307Z,4.10
2023-02-15T12:44:26.914Z,4.50
2023-02-15T12:46:38.493Z,4.60
2023-02-15T12:48:43.236Z,4.40
2023-02-15T12:50:54.731Z,4.50
2023-02-15T12:53:10.806Z,4.90
2023-02-15T12:55:24.853Z,5.20
2023-02-15T12:57:31.685Z,5.40
2023-02-15T12:59:38.672Z,5.30
2023-02-15T13:01:47.395Z,5.60
2023-02-15T13:04:01.226Z,5.30
2023-02-15T13:06:09.629Z,5.20
2023-02-15T13:08:17.706Z,5.40
2023-02-15T13:10:26.235Z,5.70
2023-02-15T13:12:35.085Z,5.90
2023-02-15T13:14:40.518Z,5.80
2023-02-15T13:16:51.190Z,5.90
2023-02-15T13:18:56.239Z,5.80
2023-02-15T13:21:04.543Z,5.90
2023-02-15T13:23:15.047Z,6.40
2023-02-15T13:25:23.838Z,6.70
2023-02-15T13:27:34.016Z,6.30
2023-02-15T13:29:41.108Z,6.50
2023-02-15T13:31:48.623Z,6.70
2023-02-15T13:33:56.197Z,6.90
2023-02-15T13:36:09.071Z,7.10
2023-02-15T13:38:23.646Z,7.20
2023-02-15T13:40:33.524Z,7.10
2023-02-15T13:42:42.416Z,6.90
2023-02-15T13:45:02.149Z,6.90
2023-02-15T13:47:19.204Z,7.00
2023-02-15T13:49:35.581Z,7.10
2023-02-15T13:51:45.221Z,7.10
2023-02-15T13:54:35.064Z,7.10
2023-02-15T13:56:49.537Z,7.20
2023-02-15T13:59:25.219Z,7.30
2023-02-15T14:01:38.383Z,7.00
2023-02-15T14:04:09.720Z,6.50
2023-02-15T14:06:47.878Z,6.70
2023-02-15T14:09:04.950Z,6.30
2023-02-15T14:11:15.521Z,6.60
2023-02-15T14:13:49.867Z,7.00
2023-02-15T14:16:00.739Z,7.00
2023-02-15T14:18:16.142Z,6.80
2023-02-15T14:20:28.375Z,6.90
2023-02-15T14:22:39.259Z,7.10
2023-02-15T14:24:47.391Z,7.20
2023-02-15T14:26:58.218Z,7.30
2023-02-15T14:29:08.883Z,7.20
2023-02-15T14:31:16.985Z,7.30
2023-02-15T14:33:36.339Z,7.30
2023-02-15T14:35:45.248Z,7.10
2023-02-15T14:37:54.954Z,7.00
2023-02-15T14:40:17.036Z,6.90
2023-02-15T14:42:27.980Z,6.90
2023-02-15T14:44:39.488Z,6.80
2023-02-15T14:46:54.095Z,7.00
2023-02-15T14:49:01.304Z,7.30
2023-02-15T14:51:08.610Z,7.30
2023-02-15T14:53:26.174Z,7.20
2023-02-15T14:55:39.016Z,7.20
2023-02-15T14:57:59.570Z,6.60
2023-02-15T15:00:08.193Z,6.40
2023-02-15T15:02:17.793Z,6.80
2023-02-15T15:04:29.668Z,6.80
2023-02-15T15:06:38.925Z,6.50
2023-02-15T15:08:44.786Z,6.20
2023-02-15T15:10:50.635Z,6.40
2023-02-15T15:12:56.122Z,6.70
2023-02-15T15:15:02.251Z,6.70
2023-02-15T15:17:07.887Z,6.70
2023-02-15T15:19:14.468Z,6.60
2023-02-15T15:21:57.820Z,6.70
2023-02-15T15:24:05.069Z,6.40
2023-02-15T15:26:26.162Z,6.40
2023-02-15T15:29:13.223Z,6.10
2023-02-15T15:31:22.613Z,6.20
2023-02-15T15:34:06.033Z,6.00
2023-02-15T15:36:52.526Z,5.50
2023-02-15T15:39:05.035Z,5.20
2023-02-15T15:41:22.554Z,5.10
2023-02-15T15:43:57.362Z,4.90
2023-02-15T15:46:36.303Z,5.10
2023-02-15T15:48:42.159Z,5.50
2023-02-15T15:50:49.520Z,5.40
2023-02-15T15:52:56.858Z,5.50
2023-02-15T15:55:07.077Z,5.60
2023-02-15T15:57:23.029Z,5.40
2023-02-15T15:59:29.866Z,5.40
2023-02-15T16:01:43.943Z,5.50
2023-02-15T16:03:55.935Z,5.50
2023-02-15T16:06:02.250Z,5.40
2023-02-15T16:08:07.967Z,5.40
2023-02-15T16:10:25.226Z,5.30
2023-02-15T16:12:34.325Z,5.20
2023-02-15T16:14:41.322Z,5.00
2023-02-15T16:16:52.211Z,4.90
2023-02-15T16:18:58.768Z,4.80
2023-02-15T16:21:04.997Z,4.80
2023-02-15T16:23:27.379Z,4.80
2023-02-15T16:25:39.232Z,4.80
2023-02-15T16:27:47.003Z,4.80
2023-02-15T16:29:52.139Z,4.70
2023-02-15T16:32:04.410Z,4.70
2023-02-15T16:34:13.926Z,4.60
2023-02-15T16:36:24.929Z,4.50
2023-02-15T16:38:51.106Z,4.60
2023-02-15T16:40:58.741Z,4.40
2023-02-15T16:43:10.328Z,4.30
2023-02-15T16:45:18.714Z,4.10
2023-02-15T16:47:26.370Z,4.10
2023-02-15T16:49:32.968Z,4.00
2023-02-15T16:51:39.434Z,3.70
2023-02-15T16:53:49.783Z,3.70
2023-02-15T16:55:57.866Z,3.70
2023-02-15T16:58:09.921Z,3.50
2023-02-15T17:00:24.367Z,3.10
2023-02-15T17:02:54.491Z,3.00
2023-02-15T17:05:11.511Z,3.00
2023-02-15T17:07:21.463Z,2.90
2023-02-15T17:09:26.591Z,2.20
2023-02-15T17:11:38.146Z,2.20
2023-02-15T17:14:03.958Z,2.20
2023-02-15T17:16:31.230Z,2.20
2023-02-15T17:18:42.053Z,2.20
2023-02-15T17:20:48.561Z,2.30
2023-02-15T17:22:53.508Z,2.40
2023-02-15T17:25:03.084Z,2.50
2023-02-15T17:27:15.383Z,2.60
2023-02-15T17:29:28.203Z,2.60
2023-02-15T17:31:34.879Z,2.60
2023-02-15T17:33:41.780Z,2.40
2023-02-15T17:35:47.038Z,2.30
2023-02-15T17:37:52.707Z,2.20
2023-02-15T17:39:57.616Z,2.20
2023-02-15T17:42:02.296Z,2.00
2023-02-15T17:44:10.763Z,2.20
2023-02-15T17:46:19.634Z,2.10
2023-02-15T17:48:31.177Z,2.10
2023-02-15T17:50:36.998Z,1.90
2023-02-15T17:52:41.734Z,1.80
2023-02-15T17:54:59.972Z,1.90
2023-02-15T17:57:06.884Z,1.90
2023-02-15T17:59:14.052Z,1.90
2023-02-15T18:01:35.800Z,1.80
2023-02-15T18:03:58.248Z,1.90
2023-02-15T18:06:15.600Z,2.00
2023-02-15T18:08:34.613Z,2.10
2023-02-15T18:10:51.810Z,2.10
2023-02-15T18:12:56.898Z,2.10
2023-02-15T18:15:02.178Z,2.00
2023-02-15T18:17:13.701Z,1.90
2023-02-15T18:19:20.623Z,2.00
2023-02-15T18:21:26.293Z,2.00
2023-02-15T18:23:30.954Z,2.00
2023-02-15T18:25:36.038Z,2.00
2023-02-15T18:27:41.127Z,2.00
2023-02-15T18:29:46.209Z,1.90
2023-02-15T18:31:55.619Z,1.90
2023-02-15T18:34:03.523Z,1.90
2023-02-15T18:36:10.174Z,1.80
2023-02-15T18:38:15.359Z,1.90
2023-02-15T18:40:21.113Z,1.80
2023-02-15T18:42:27.714Z,1.80
2023-02-15T18:44:32.879Z,1.70
2023-02-15T18:46:37.590Z,1.60
2023-02-15T18:48:42.651Z,1.60
2023-02-15T18:50:50.018Z,1.60
2023-02-15T18:52:55.173Z,1.60
2023-02-15T18:55:04.985Z,1.50
2023-02-15T18:57:15.272Z,1.60
2023-02-15T18:59:20.673Z,1.60
2023-02-15T19:01:25.384Z,1.60
2023-02-15T19:03:30.816Z,1.60
2023-02-15T19:05:36.260Z,1.60
2023-02-15T19:07:48.438Z,1.60
2023-02-15T19:09:57.952Z,1.60
2023-02-15T19:12:02.697Z,1.50
2023-02-15T19:14:09.218Z,1.50
2023-02-15T19:16:30.310Z,1.50
2023-02-15T19:18:35.017Z,1.50
2023-02-15T19:20:41.783Z,1.40
2023-02-15T19:22:49.478Z,1.40
2023-02-15T19:24:55.362Z,1.40
2023-02-15T19:27:00.164Z,1.40
2023-02-15T19:29:05.022Z,1.40
2023-02-15T19:31:14.278Z,1.40
2023-02-15T19:33:21.090Z,1.40
2023-02-15T19:35:28.120Z,1.30
2023-02-15T19:37:37.105Z,1.30
2023-02-15T19:39:44.513Z,1.30
2023-02-15T19:41:49.235Z,1.20
2023-02-15T19:43:57.370Z,1.30
2023-02-15T19:46:02.396Z,1.30
2023-02-15T19:48:09.028Z,1.30
2023-02-15T19:50:18.498Z,1.30
2023-02-15T19:52:25.933Z,1.20
2023-02-15T19:54:33.527Z,1.20
2023-02-15T19:56:40.801Z,1.20
2023-02-15T19:58:45.493Z,1.30
2023-02-15T20:00:52.297Z,1.20
2023-02-15T20:02:59.364Z,1.20
2023-02-15T20:05:04.135Z,1.20
2023-02-15T20:07:12.804Z,1.20
2023-02-15T20:09:23.973Z,1.20
2023-02-15T20:11:29.567Z,1.10
2023-02-15T20:13:36.847Z,1.10
2023-02-15T20:15:41.563Z,1.10
2023-02-15T20:17:46.274Z,1.10
2023-02-15T20:19:51.383Z,1.00
2023-02-15T20:22:02.541Z,1.10
2023-02-15T20:24:08.361Z,1.00
2023-02-15T20:26:18.394Z,1.10
2023-02-15T20:28:25.758Z,1.10
2023-02-15T20:30:35.236Z,1.10
2023-02-15T20:32:40.345Z,1.10
2023-02-15T20:34:45.109Z,1.00
2023-02-15T20:36:50.365Z,1.00
2023-02-15T20:38:57.265Z,1.00
2023-02-15T20:41:16.330Z,0.90
2023-02-15T20:43:22.157Z,0.80
2023-02-15T20:45:28.253Z,0.80
2023-02-15T20:47:35.772Z,0.90
2023-02-15T20:49:40.784Z,0.80
2023-02-15T20:51:47.908Z,0.80
2023-02-15T20:53:52.652Z,0.80
2023-02-15T20:55:58.113Z,0.80
2023-02-15T20:58:03.435Z,0.80
2023-02-15T21:00:10.118Z,0.90
2023-02-15T21:02:19.517Z,0.80
2023-02-15T21:04:31.671Z,0.90
2023-02-15T21:06:36.366Z,0.90
2023-02-15T21:08:41.812Z,0.80
2023-02-15T21:10:48.137Z,0.80
2023-02-15T21:12:54.048Z,0.80
2023-02-15T21:14:58.750Z,0.80
2023-02-15T21:17:04.872Z,0.80
2023-02-15T21:19:14.870Z,0.80
2023-02-15T21:21:25.599Z,0.80
2023-02-15T21:23:33.026Z,0.80
2023-02-15T21:25:39.838Z,0.80
2023-02-15T21:27:44.972Z,0.80
2023-02-15T21:29:49.753Z,0.80
2023-02-15T21:31:54.593Z,0.70
2023-02-15T21:33:59.781Z,0.70
2023-02-15T21:36:05.003Z,0.70
2023-02-15T21:38:16.457Z,0.70
2023-02-15T21:40:23.733Z,0.70
2023-02-15T21:42:43.153Z,0.70
2023-02-15T21:45:00.390Z,0.70
2023-02-15T21:47:17.564Z,0.70
2023-02-15T21:49:22.277Z,0.70
2023-02-15T21:51:39.811Z,0.70
2023-02-15T21:53:48.847Z,0.80
